createdAt,value
2023-04-10T00:00:02.587Z,88.2
2023-04-10T00:15:03.149Z,88.5
2023-04-10T00:30:02.474Z,89.2
2023-04-10T00:45:03.077Z,89.7
2023-04-10T01:00:02.356Z,90.1
2023-04-10T01:15:02.771Z,90.4
2023-04-10T01:30:02.185Z,91.0
2023-04-10T01:45:02.660Z,91.7
2023-04-10T02:00:03.298Z,92.3
2023-04-10T02:15:02.552Z,93.0
2023-04-10T02:30:03.193Z,93.3
2023-04-10T02:45:02.415Z,93.8
2023-04-10T03:00:02.847Z,94.1
2023-04-10T03:15:02.286Z,94.4
2023-04-10T03:30:02.736Z,94.8
2023-04-10T03:45:03.197Z,95.1
2023-04-10T04:00:02.621Z,95.4
2023-04-10T04:15:03.180Z,95.7
2023-04-10T04:45:02.936Z,96.0
2023-04-10T05:00:02.391Z,96.2
2023-04-10T05:15:02.819Z,96.3
2023-04-10T05:30:02.274Z,96.2
2023-04-10T05:45:02.711Z,96.4
2023-04-10T06:00:03.217Z,96.2
2023-04-10T06:15:02.623Z,96.0
2023-04-10T06:30:03.217Z,95.6
2023-04-10T06:45:02.449Z,95.2
2023-04-10T07:00:03.174Z,94.5
2023-04-10T07:15:02.319Z,93.1
2023-04-10T07:30:02.729Z,88.9
2023-04-10T07:45:03.253Z,83.4
2023-04-10T08:00:02.698Z,65.0
2023-04-10T08:15:03.259Z,48.2
2023-04-10T08:30:02.550Z,42.6
2023-04-10T08:45:02.947Z,42.4
2023-04-10T09:00:16.108Z,42.5
2023-04-10T09:15:02.810Z,42.5
2023-04-10T09:30:02.275Z,38.8
2023-04-10T09:45:02.720Z,38.3
2023-04-10T10:00:03.276Z,41.1
2023-04-10T10:15:02.586Z,35.6
2023-04-10T10:30:11.871Z,36.7
2023-04-10T10:45:02.467Z,33.7
2023-04-10T11:00:02.906Z,32.8
2023-04-10T11:15:02.487Z,34.2
2023-04-10T11:30:02.818Z,33.2
2023-04-10T11:45:02.280Z,32.5
2023-04-10T12:00:02.666Z,32.9
2023-04-10T12:15:03.280Z,33.4
2023-04-10T12:30:02.518Z,31.5
2023-04-10T12:45:02.984Z,30.9
2023-04-10T13:00:02.449Z,30.6
2023-04-10T13:15:02.924Z,30.3
2023-04-10T13:30:02.322Z,31.5
2023-04-10T13:45:02.764Z,31.6
2023-04-10T14:00:03.299Z,33.1
2023-04-10T14:15:02.582Z,34.8
2023-04-10T14:30:03.284Z,32.5
2023-04-10T14:45:02.509Z,33.6
2023-04-10T15:00:02.918Z,33.2
2023-04-10T15:15:02.391Z,35.6
2023-04-10T15:30:02.802Z,34.9
2023-04-10T15:45:03.317Z,36.5
2023-04-10T16:00:02.809Z,36.9
2023-04-10T16:15:02.319Z,37.5
2023-04-10T16:30:02.646Z,38.9
2023-04-10T16:45:03.036Z,39.0
2023-04-10T17:00:02.515Z,37.4
2023-04-10T17:15:02.907Z,35.1
2023-04-10T17:30:02.365Z,36.0
2023-04-10T17:45:02.789Z,36.3
2023-04-10T18:00:03.338Z,37.2
2023-04-10T18:15:02.702Z,36.8
2023-04-10T18:30:03.355Z,37.9
2023-04-10T18:45:02.560Z,44.2
2023-04-10T19:00:03.004Z,65.7
2023-04-10T19:15:02.436Z,76.5
2023-04-10T19:30:02.907Z,82.5
2023-04-10T19:45:02.369Z,87.4
2023-04-10T20:00:02.754Z,89.1
2023-04-10T20:15:03.363Z,90.4
2023-04-10T20:30:02.624Z,91.6
2023-04-10T20:45:03.088Z,93.3
2023-04-10T21:00:02.509Z,94.4
2023-04-10T21:15:02.995Z,95.0
2023-04-10T21:30:02.400Z,95.6
2023-04-10T21:45:02.846Z,96.1
2023-04-10T22:00:02.408Z,96.3
2023-04-10T22:15:02.692Z,96.7
2023-04-10T22:30:04.517Z,96.9
2023-04-10T22:45:03.617Z,97.0
2023-04-10T23:00:03.050Z,97.0
2023-04-10T23:15:02.482Z,96.9
2023-04-10T23:30:02.927Z,97.1
2023-04-10T23:45:02.409Z,97.1
